createdAt,value
2019-03-04T00:02:24.115Z,38.23
2019-03-04T00:04:52.614Z,38.33
2019-03-04T00:07:21.157Z,40.97
2019-03-04T00:09:49.756Z,39.50
2019-03-04T00:12:18.259Z,39.07
2019-03-04T00:14:46.767Z,43.33
2019-03-04T00:17:15.273Z,47.03
2019-03-04T00:19:43.827Z,47.20
2019-03-04T00:22:12.330Z,48.60
2019-03-04T00:24:40.838Z,44.10
2019-03-04T00:27:09.345Z,40.17
2019-03-04T00:29:37.843Z,36.87
2019-03-04T00:32:06.384Z,40.30
2019-03-04T00:34:35.288Z,42.23
2019-03-04T00:37:03.785Z,42.93
2019-03-04T00:39:32.295Z,42.07
2019-03-04T00:42:00.841Z,43.37
2019-03-04T00:44:32.793Z,41.93
2019-03-04T00:47:01.295Z,42.37
2019-03-04T00:49:29.800Z,42.33
2019-03-04T00:51:58.317Z,41.77
2019-03-04T00:54:26.806Z,42.77
2019-03-04T00:56:55.362Z,42.70
2019-03-04T00:59:23.858Z,39.53
2019-03-04T01:01:52.411Z,41.13
2019-03-04T01:04:20.890Z,41.10
2019-03-04T01:06:49.402Z,41.50
2019-03-04T01:09:18.158Z,42.87
2019-03-04T01:11:46.666Z,43.90
2019-03-04T01:14:15.175Z,40.83
2019-03-04T01:16:43.697Z,38.70
2019-03-04T01:19:12.202Z,38.30
2019-03-04T01:21:40.753Z,42.57
2019-03-04T01:24:09.263Z,41.77
2019-03-04T01:26:37.846Z,41.40
2019-03-04T01:29:06.354Z,41.73
2019-03-04T01:31:34.860Z,42.17
2019-03-04T01:34:03.415Z,41.50
2019-03-04T01:36:31.912Z,40.40
2019-03-04T01:39:00.423Z,40.67
2019-03-04T01:41:32.250Z,40.37
2019-03-04T01:44:01.641Z,39.40
2019-03-04T01:46:32.797Z,39.23
2019-03-04T01:49:01.293Z,38.17
2019-03-04T01:51:29.801Z,36.27
2019-03-04T01:53:58.313Z,39.70
2019-03-04T01:56:26.894Z,38.67
2019-03-04T01:58:55.427Z,37.67
2019-03-04T02:01:23.929Z,36.70
2019-03-04T02:03:52.431Z,37.33
2019-03-04T02:06:20.940Z,36.03
2019-03-04T02:08:49.436Z,40.63
2019-03-04T02:11:17.979Z,37.93
2019-03-04T02:13:46.484Z,36.77
2019-03-04T02:16:14.985Z,38.80
2019-03-04T02:18:43.496Z,38.00
2019-03-04T02:21:12.001Z,35.80
2019-03-04T02:23:40.556Z,36.30
2019-03-04T02:26:12.121Z,35.03
2019-03-04T02:28:40.621Z,33.83
2019-03-04T02:31:09.128Z,34.27
2019-03-04T02:33:37.622Z,33.33
2019-03-04T02:36:06.184Z,32.57
2019-03-04T02:38:34.686Z,37.93
2019-03-04T02:41:03.219Z,41.07
2019-03-04T02:43:31.695Z,42.30
2019-03-04T02:46:00.201Z,40.73
2019-03-04T02:48:28.745Z,39.37
2019-03-04T02:50:57.243Z,34.20
2019-03-04T02:53:25.748Z,33.47
2019-03-04T02:55:54.323Z,33.93
2019-03-04T02:58:22.827Z,33.20
2019-03-04T03:00:51.461Z,34.40
2019-03-04T03:03:19.963Z,33.80
2019-03-04T03:05:48.465Z,33.43
2019-03-04T03:08:16.971Z,33.57
2019-03-04T03:10:45.468Z,32.33
2019-03-04T03:13:14.011Z,31.90
2019-03-04T03:15:42.502Z,32.67
2019-03-04T03:18:10.999Z,31.53
2019-03-04T03:20:39.510Z,31.63
2019-03-04T03:23:08.012Z,32.47
2019-03-04T03:25:36.554Z,31.83
2019-03-04T03:28:05.071Z,36.53
2019-03-04T03:30:33.566Z,29.47
2019-03-04T03:33:02.106Z,27.70
2019-03-04T03:35:30.643Z,29.40
2019-03-04T03:37:59.187Z,29.70
2019-03-04T03:40:27.687Z,28.47
2019-03-04T03:42:56.182Z,27.10
2019-03-04T03:45:24.685Z,26.57
2019-03-04T03:47:53.185Z,26.20
2019-03-04T03:50:21.727Z,27.73
2019-03-04T03:52:50.274Z,29.53
2019-03-04T03:55:18.745Z,29.00
2019-03-04T03:57:47.324Z,28.70
2019-03-04T04:00:17.985Z,28.17
2019-03-04T04:02:46.495Z,31.57
2019-03-04T04:05:15.007Z,31.17
2019-03-04T04:07:43.537Z,36.57
2019-03-04T04:10:13.762Z,37.23
2019-03-04T04:12:42.265Z,33.13
2019-03-04T04:15:14.864Z,64.60
2019-03-04T04:17:43.385Z,98.60
2019-03-04T04:20:12.377Z,61.93
2019-03-04T04:22:40.919Z,33.40
2019-03-04T04:25:10.320Z,36.20
2019-03-04T04:27:38.828Z,33.73
2019-03-04T04:30:13.025Z,37.80
2019-03-04T04:32:41.534Z,48.30
2019-03-04T04:35:11.738Z,40.60
2019-03-04T04:37:40.240Z,37.87
2019-03-04T04:40:11.408Z,35.93
2019-03-04T04:42:39.911Z,32.77
2019-03-04T04:45:09.005Z,28.07
2019-03-04T04:47:38.714Z,38.13
2019-03-04T04:50:15.423Z,31.90
2019-03-04T04:52:43.968Z,30.57
2019-03-04T04:55:12.473Z,29.70
2019-03-04T04:57:40.969Z,26.23
2019-03-04T05:00:12.376Z,27.80
2019-03-04T05:02:40.870Z,31.60
2019-03-04T05:05:09.458Z,31.87
2019-03-04T05:07:37.961Z,29.67
2019-03-04T05:10:12.237Z,27.87
2019-03-04T05:12:40.735Z,28.53
2019-03-04T05:15:11.342Z,37.73
2019-03-04T05:17:40.015Z,37.13
2019-03-04T05:20:13.965Z,32.33
2019-03-04T05:22:42.510Z,33.43
2019-03-04T05:25:11.006Z,28.17
2019-03-04T05:27:39.514Z,27.00
2019-03-04T05:30:13.729Z,24.23
2019-03-04T05:32:42.227Z,24.57
2019-03-04T05:35:10.770Z,22.70
2019-03-04T05:37:39.271Z,25.03
2019-03-04T05:40:10.734Z,25.77
2019-03-04T05:42:39.543Z,25.47
2019-03-04T05:45:11.353Z,25.47
2019-03-04T05:47:39.889Z,26.73
2019-03-04T05:50:19.699Z,25.47
2019-03-04T05:52:48.271Z,29.53
2019-03-04T05:55:16.757Z,30.50
2019-03-04T05:57:45.251Z,39.43
2019-03-04T06:00:25.105Z,30.27
2019-03-04T06:02:56.971Z,35.00
2019-03-04T06:05:25.484Z,39.10
2019-03-04T06:07:55.561Z,42.83
2019-03-04T06:10:24.067Z,38.20
2019-03-04T06:12:52.563Z,35.67
2019-03-04T06:15:21.615Z,43.10
2019-03-04T06:17:50.125Z,67.97
2019-03-04T06:20:19.751Z,50.23
2019-03-04T06:22:48.293Z,43.57
2019-03-04T06:25:27.921Z,43.77
2019-03-04T06:27:56.466Z,57.70
2019-03-04T06:30:30.790Z,42.00
2019-03-04T06:32:59.287Z,41.93
2019-03-04T06:35:27.869Z,44.90
2019-03-04T06:37:56.373Z,40.97
2019-03-04T06:40:24.911Z,41.57
2019-03-04T06:42:53.417Z,40.77
2019-03-04T06:45:21.924Z,36.37
2019-03-04T06:47:50.424Z,42.87
2019-03-04T06:50:41.476Z,46.77
2019-03-04T06:53:10.055Z,62.83
2019-03-04T06:55:59.906Z,49.57
2019-03-04T06:58:28.480Z,51.27
2019-03-04T07:00:59.907Z,55.87
2019-03-04T07:03:28.411Z,65.13
2019-03-04T07:05:56.931Z,67.27
2019-03-04T07:08:37.356Z,57.83
2019-03-04T07:11:05.857Z,58.63
2019-03-04T07:13:34.359Z,62.07
2019-03-04T07:16:02.877Z,55.43
2019-03-04T07:18:31.415Z,53.43
2019-03-04T07:21:00.031Z,57.40
2019-03-04T07:23:28.530Z,59.23
2019-03-04T07:25:57.074Z,58.90
2019-03-04T07:28:25.596Z,52.27
2019-03-04T07:30:54.428Z,49.83
2019-03-04T07:33:22.979Z,54.73
2019-03-04T07:35:51.498Z,51.70
2019-03-04T07:38:26.115Z,45.17
2019-03-04T07:40:54.626Z,48.37
2019-03-04T07:43:23.119Z,45.07
2019-03-04T07:45:51.634Z,46.30
2019-03-04T07:48:20.136Z,44.77
2019-03-04T07:50:48.643Z,44.60
2019-03-04T07:53:19.089Z,46.73
2019-03-04T07:55:47.412Z,43.40
2019-03-04T07:58:15.913Z,40.93
2019-03-04T08:00:44.410Z,41.90
2019-03-04T08:03:12.919Z,41.07
2019-03-04T08:05:41.421Z,32.30
2019-03-04T08:08:12.345Z,34.73
2019-03-04T08:11:06.779Z,32.03
2019-03-04T08:13:38.407Z,33.07
2019-03-04T08:16:08.302Z,31.73
2019-03-04T08:18:36.816Z,29.83
2019-03-04T08:21:05.315Z,29.50
2019-03-04T08:23:33.824Z,27.83
2019-03-04T08:26:02.364Z,28.40
2019-03-04T08:28:30.865Z,28.47
2019-03-04T08:30:59.367Z,26.90
2019-03-04T08:33:27.879Z,27.17
2019-03-04T08:35:56.403Z,26.87
2019-03-04T08:38:24.886Z,27.43
2019-03-04T08:40:53.383Z,26.43
2019-03-04T08:43:21.895Z,25.80
2019-03-04T08:45:50.404Z,26.23
2019-03-04T08:48:18.970Z,25.07
2019-03-04T08:50:47.470Z,24.87
2019-03-04T08:53:15.996Z,25.63
2019-03-04T08:55:45.421Z,25.00
2019-03-04T08:58:14.100Z,24.23
2019-03-04T09:00:42.657Z,23.47
2019-03-04T09:03:11.155Z,23.43
2019-03-04T09:05:39.658Z,27.53
2019-03-04T09:08:08.172Z,22.40
2019-03-04T09:10:37.473Z,22.37
2019-03-04T09:13:06.016Z,23.93
2019-03-04T09:15:34.523Z,25.20
2019-03-04T09:18:03.014Z,25.30
2019-03-04T09:20:32.613Z,21.87
2019-03-04T09:23:01.114Z,28.13
2019-03-04T09:25:41.314Z,45.10
2019-03-04T09:28:09.818Z,26.17
2019-03-04T09:30:38.322Z,26.20
2019-03-04T09:33:06.839Z,34.00
2019-03-04T09:35:35.341Z,41.47
2019-03-04T09:38:03.904Z,52.87
2019-03-04T09:40:33.803Z,25.60
2019-03-04T09:43:03.300Z,22.47
2019-03-04T09:45:38.959Z,23.40
2019-03-04T09:48:03.483Z,22.13
2019-03-04T09:50:35.514Z,20.87
2019-03-04T09:53:04.047Z,22.93
2019-03-04T09:55:32.548Z,26.10
2019-03-04T09:58:01.064Z,25.37
2019-03-04T10:00:47.514Z,20.80
2019-03-04T10:03:41.644Z,20.63
2019-03-04T10:06:35.816Z,20.40
2019-03-04T10:09:22.306Z,17.90
2019-03-04T10:12:02.881Z,23.33
2019-03-04T10:15:08.491Z,25.00
2019-03-04T10:17:43.778Z,18.87
2019-03-04T10:20:41.138Z,19.70
2019-03-04T10:23:32.601Z,27.97
2019-03-04T10:26:22.580Z,22.77
2019-03-04T10:29:15.307Z,21.53
2019-03-04T10:32:02.236Z,25.33
2019-03-04T10:34:48.989Z,21.50
2019-03-04T10:37:32.654Z,22.07
2019-03-04T10:40:19.430Z,21.07
2019-03-04T10:42:53.908Z,20.73
2019-03-04T10:45:32.693Z,21.30
2019-03-04T10:48:01.204Z,20.73
2019-03-04T10:50:29.701Z,19.23
2019-03-04T10:52:58.218Z,17.20
2019-03-04T10:55:26.719Z,15.27
2019-03-04T10:57:55.288Z,15.23
2019-03-04T11:00:23.901Z,14.70
2019-03-04T11:02:52.397Z,15.43
2019-03-04T11:05:20.908Z,20.87
2019-03-04T11:07:49.417Z,20.10
2019-03-04T11:10:17.966Z,17.27
2019-03-04T11:12:46.478Z,16.60
2019-03-04T11:15:23.509Z,13.57
2019-03-04T11:17:54.228Z,16.33
2019-03-04T11:20:22.236Z,12.43
2019-03-04T11:22:50.771Z,13.47
2019-03-04T11:25:19.774Z,14.83
2019-03-04T11:27:48.341Z,13.37
2019-03-04T11:30:23.067Z,14.17
2019-03-04T11:32:51.567Z,11.07
2019-03-04T11:35:20.067Z,11.20
2019-03-04T11:37:48.790Z,12.63
2019-03-04T11:40:27.492Z,10.00
2019-03-04T11:42:56.207Z,10.27
2019-03-04T11:45:25.027Z,14.10
2019-03-04T11:47:53.759Z,12.13
2019-03-04T11:50:22.467Z,8.43
2019-03-04T11:52:51.182Z,8.40
2019-03-04T11:55:22.941Z,10.33
2019-03-04T11:57:51.702Z,31.27
2019-03-04T12:00:26.998Z,19.23
2019-03-04T12:02:55.711Z,12.53
2019-03-04T12:05:24.449Z,12.13
2019-03-04T12:07:53.166Z,7.33
2019-03-04T12:10:21.914Z,7.80
2019-03-04T12:12:50.627Z,6.63
2019-03-04T12:15:21.106Z,6.70
2019-03-04T12:17:49.811Z,6.30
2019-03-04T12:20:19.428Z,7.27
2019-03-04T12:22:48.209Z,7.37
2019-03-04T12:25:20.854Z,8.30
2019-03-04T12:27:49.562Z,7.80
2019-03-04T12:30:23.529Z,8.93
2019-03-04T12:32:52.747Z,9.83
2019-03-04T12:35:21.558Z,7.17
2019-03-04T12:37:50.568Z,6.83
2019-03-04T12:40:20.640Z,6.60
2019-03-04T12:42:49.347Z,6.43
2019-03-04T12:45:19.562Z,6.77
2019-03-04T12:47:48.285Z,7.30
2019-03-04T12:50:30.928Z,7.13
2019-03-04T12:52:59.779Z,5.73
2019-03-04T12:55:28.491Z,5.57
2019-03-04T12:57:57.266Z,5.37
2019-03-04T13:00:28.888Z,5.10
2019-03-04T13:02:58.231Z,5.20
2019-03-04T13:05:27.245Z,5.03
2019-03-04T13:07:55.949Z,6.10
2019-03-04T13:10:24.765Z,5.63
2019-03-04T13:12:53.643Z,8.50
2019-03-04T13:15:25.268Z,6.87
2019-03-04T13:17:53.982Z,17.83
2019-03-04T13:20:25.572Z,6.03
2019-03-04T13:22:54.279Z,5.70
2019-03-04T13:25:23.023Z,5.43
2019-03-04T13:27:51.725Z,6.10
2019-03-04T13:30:27.600Z,5.70
2019-03-04T13:32:56.306Z,5.60
2019-03-04T13:35:36.661Z,6.37
2019-03-04T13:38:05.565Z,5.20
2019-03-04T13:40:34.368Z,5.47
2019-03-04T13:43:04.566Z,5.17
2019-03-04T13:45:33.272Z,5.43
2019-03-04T13:48:02.284Z,14.20
2019-03-04T13:50:36.396Z,7.13
2019-03-04T13:53:05.796Z,5.00
2019-03-04T13:55:34.566Z,6.07
2019-03-04T13:58:03.379Z,7.73
2019-03-04T14:00:40.586Z,8.63
2019-03-04T14:03:09.400Z,7.50
2019-03-04T14:05:38.115Z,16.63
2019-03-04T14:08:06.840Z,11.50
2019-03-04T14:10:37.553Z,13.03
2019-03-04T14:13:06.305Z,9.27
2019-03-04T14:15:37.900Z,10.30
2019-03-04T14:18:06.795Z,10.40
2019-03-04T14:20:35.520Z,10.93
2019-03-04T14:23:04.422Z,9.33
2019-03-04T14:25:33.412Z,20.00
2019-03-04T14:28:02.124Z,10.53
2019-03-04T14:30:30.890Z,9.23
2019-03-04T14:32:59.634Z,12.17
2019-03-04T14:35:28.343Z,11.73
2019-03-04T14:37:57.098Z,10.20
2019-03-04T14:40:25.816Z,9.83
2019-03-04T14:42:55.214Z,11.13
2019-03-04T14:45:26.096Z,9.47
2019-03-04T14:47:55.089Z,11.00
2019-03-04T14:50:25.337Z,10.93
2019-03-04T14:52:54.037Z,9.93
2019-03-04T14:55:37.240Z,8.73
2019-03-04T14:58:06.002Z,9.67
2019-03-04T15:00:43.506Z,19.80
2019-03-04T15:03:20.681Z,34.70
2019-03-04T15:05:42.828Z,37.27
2019-03-04T15:08:11.558Z,16.07
2019-03-04T15:10:40.331Z,35.57
2019-03-04T15:13:09.977Z,57.83
2019-03-04T15:15:38.893Z,34.07
2019-03-04T15:18:07.706Z,23.97
2019-03-04T15:20:36.466Z,41.10
2019-03-04T15:23:05.183Z,33.57
2019-03-04T15:25:36.833Z,38.00
2019-03-04T15:28:22.623Z,30.10
2019-03-04T15:30:54.213Z,26.10
2019-03-04T15:33:23.190Z,58.83
2019-03-04T15:35:51.901Z,20.70
2019-03-04T15:38:20.619Z,15.73
2019-03-04T15:40:49.393Z,17.83
2019-03-04T15:43:18.119Z,32.63
2019-03-04T15:45:48.405Z,64.77
2019-03-04T15:48:18.226Z,82.80
2019-03-04T15:50:46.960Z,94.90
2019-03-04T15:53:15.714Z,41.80
2019-03-04T15:55:44.448Z,66.63
2019-03-04T15:58:13.256Z,47.67
2019-03-04T16:00:42.343Z,132.30
2019-03-04T16:03:11.066Z,110.27
2019-03-04T16:05:39.894Z,109.33
2019-03-04T16:08:08.619Z,77.40
2019-03-04T16:10:37.733Z,87.27
2019-03-04T16:13:08.012Z,65.00
2019-03-04T16:15:39.571Z,77.97
2019-03-04T16:18:08.291Z,62.00
2019-03-04T16:20:37.410Z,58.17
2019-03-04T16:23:06.135Z,53.47
2019-03-04T16:25:34.869Z,56.63
2019-03-04T16:28:12.624Z,45.47
2019-03-04T16:30:42.138Z,59.97
2019-03-04T16:33:10.901Z,41.17
2019-03-04T16:35:39.626Z,34.33
2019-03-04T16:38:08.336Z,27.03
2019-03-04T16:40:37.061Z,36.47
2019-03-04T16:43:05.872Z,35.73
2019-03-04T16:45:34.646Z,34.50
2019-03-04T16:48:03.355Z,36.60
2019-03-04T16:50:36.935Z,32.67
2019-03-04T16:53:08.997Z,25.20
2019-03-04T16:55:37.709Z,24.00
2019-03-04T16:58:06.429Z,23.63
2019-03-04T17:00:35.195Z,32.53
2019-03-04T17:03:03.907Z,41.37
2019-03-04T17:05:32.633Z,33.43
2019-03-04T17:08:01.890Z,23.63
2019-03-04T17:10:33.817Z,13.23
2019-03-04T17:13:02.542Z,39.73
2019-03-04T17:15:32.965Z,57.43
2019-03-04T17:18:01.692Z,52.17
2019-03-04T17:20:30.416Z,54.83
2019-03-04T17:22:59.169Z,50.70
2019-03-04T17:25:27.892Z,42.23
2019-03-04T17:27:56.605Z,44.60
2019-03-04T17:30:26.963Z,58.27
2019-03-04T17:32:55.790Z,52.83
2019-03-04T17:35:25.012Z,48.90
2019-03-04T17:37:53.785Z,50.57
2019-03-04T17:40:29.760Z,49.87
2019-03-04T17:42:58.529Z,44.00
2019-03-04T17:45:30.153Z,36.63
2019-03-04T17:47:58.869Z,39.27
2019-03-04T17:50:44.619Z,41.03
2019-03-04T17:53:15.383Z,40.33
2019-03-04T17:55:45.297Z,34.90
2019-03-04T17:58:14.275Z,42.77
2019-03-04T18:00:44.569Z,47.00
2019-03-04T18:03:13.294Z,38.97
2019-03-04T18:05:42.056Z,23.00
2019-03-04T18:08:10.768Z,11.97
2019-03-04T18:10:39.492Z,11.43
2019-03-04T18:13:11.035Z,10.73
2019-03-04T18:15:41.560Z,11.90
2019-03-04T18:18:10.304Z,14.83
2019-03-04T18:20:39.080Z,14.07
2019-03-04T18:23:07.804Z,21.67
2019-03-04T18:25:48.605Z,18.20
2019-03-04T18:28:22.770Z,17.77
2019-03-04T18:31:18.438Z,28.07
2019-03-04T18:34:06.518Z,20.27
2019-03-04T18:36:46.982Z,16.13
2019-03-04T18:39:18.601Z,16.00
2019-03-04T18:42:14.269Z,19.37
2019-03-04T18:44:51.896Z,17.23
2019-03-04T18:47:35.659Z,16.70
2019-03-04T18:50:05.791Z,17.10
2019-03-04T18:52:34.510Z,18.23
2019-03-04T18:55:03.247Z,17.90
2019-03-04T18:57:31.960Z,17.73
2019-03-04T19:00:00.711Z,18.17
2019-03-04T19:02:29.426Z,18.63
2019-03-04T19:04:58.141Z,19.23
2019-03-04T19:07:26.876Z,18.90
2019-03-04T19:09:55.587Z,20.33
2019-03-04T19:12:24.352Z,17.67
2019-03-04T19:14:53.062Z,16.87
2019-03-04T19:17:21.779Z,17.30
2019-03-04T19:19:50.534Z,17.17
2019-03-04T19:22:20.414Z,39.10
2019-03-04T19:24:49.156Z,64.03
2019-03-04T19:27:17.884Z,57.00
2019-03-04T19:29:46.607Z,45.50
2019-03-04T19:32:15.464Z,45.23
2019-03-04T19:34:44.173Z,41.40
2019-03-04T19:37:12.896Z,32.40
2019-03-04T19:39:41.651Z,24.77
2019-03-04T19:42:10.364Z,26.70
2019-03-04T19:44:39.082Z,26.77
2019-03-04T19:47:07.806Z,29.33
2019-03-04T19:49:36.512Z,29.43
2019-03-04T19:52:05.474Z,26.47
2019-03-04T19:54:34.187Z,22.27
2019-03-04T19:57:02.908Z,21.03
2019-03-04T19:59:31.676Z,23.90
2019-03-04T20:02:02.099Z,36.60
2019-03-04T20:04:31.113Z,29.13
2019-03-04T20:06:59.830Z,30.83
2019-03-04T20:09:28.535Z,35.30
2019-03-04T20:11:57.348Z,33.80
2019-03-04T20:14:26.065Z,28.97
2019-03-04T20:16:54.907Z,27.03
2019-03-04T20:19:23.623Z,25.33
2019-03-04T20:21:52.341Z,32.73
2019-03-04T20:24:21.301Z,56.03
2019-03-04T20:26:50.034Z,46.70
2019-03-04T20:29:18.748Z,48.33
2019-03-04T20:31:47.489Z,60.53
2019-03-04T20:34:16.195Z,46.07
2019-03-04T20:36:44.985Z,36.43
2019-03-04T20:39:14.904Z,36.90
2019-03-04T20:41:43.617Z,36.30
2019-03-04T20:44:13.870Z,51.33
2019-03-04T20:46:42.590Z,47.20
2019-03-04T20:49:11.309Z,42.07
2019-03-04T20:51:40.028Z,39.77
2019-03-04T20:54:09.714Z,37.80
2019-03-04T20:56:38.568Z,37.90
2019-03-04T20:59:07.286Z,35.80
2019-03-04T21:01:36.082Z,39.53
2019-03-04T21:04:05.020Z,37.20
2019-03-04T21:06:33.734Z,36.10
2019-03-04T21:09:02.801Z,40.10
2019-03-04T21:11:31.827Z,60.27
2019-03-04T21:14:00.532Z,41.97
2019-03-04T21:16:29.248Z,36.50
2019-03-04T21:18:57.955Z,36.20
2019-03-04T21:21:26.707Z,33.13
2019-03-04T21:23:55.428Z,31.97
2019-03-04T21:26:24.857Z,37.33
2019-03-04T21:29:29.890Z,36.70
2019-03-04T21:32:02.636Z,38.83
2019-03-04T21:34:37.281Z,22.40
2019-03-04T21:37:11.596Z,17.97
2019-03-04T21:39:43.215Z,19.13
2019-03-04T21:42:14.831Z,15.67
2019-03-04T21:44:51.777Z,13.47
2019-03-04T21:47:23.396Z,17.80
2019-03-04T21:49:52.899Z,18.83
2019-03-04T21:52:33.211Z,16.63
2019-03-04T21:55:03.634Z,13.70
2019-03-04T21:57:35.109Z,14.97
2019-03-04T22:00:05.863Z,12.63
2019-03-04T22:02:37.754Z,12.90
2019-03-04T22:05:09.418Z,10.90
2019-03-04T22:07:38.256Z,14.50
2019-03-04T22:10:10.124Z,16.53
2019-03-04T22:12:39.163Z,16.13
2019-03-04T22:15:08.731Z,17.47
2019-03-04T22:17:37.453Z,20.23
2019-03-04T22:20:09.163Z,22.23
2019-03-04T22:22:37.933Z,25.63
2019-03-04T22:25:11.926Z,32.57
2019-03-04T22:27:40.658Z,24.30
2019-03-04T22:30:15.277Z,25.77
2019-03-04T22:32:44.106Z,26.30
2019-03-04T22:35:17.243Z,25.80
2019-03-04T22:37:45.840Z,25.30
2019-03-04T22:40:23.229Z,21.03
2019-03-04T22:42:52.024Z,22.20
2019-03-04T22:45:21.692Z,19.60
2019-03-04T22:47:51.620Z,19.13
2019-03-04T22:50:21.964Z,18.93
2019-03-04T22:52:50.892Z,18.20
2019-03-04T22:55:28.496Z,19.07
2019-03-04T22:57:57.227Z,18.50
2019-03-04T23:00:54.465Z,19.40
2019-03-04T23:03:28.729Z,21.90
2019-03-04T23:06:15.773Z,20.27
2019-03-04T23:08:44.535Z,20.93
2019-03-04T23:11:13.508Z,22.63
2019-03-04T23:14:05.042Z,22.27
2019-03-04T23:16:34.172Z,20.83
2019-03-04T23:19:02.993Z,18.50
2019-03-04T23:21:31.762Z,19.50
2019-03-04T23:24:00.527Z,17.37
2019-03-04T23:26:29.296Z,16.60
2019-03-04T23:28:58.057Z,16.97
2019-03-04T23:31:26.903Z,16.10
2019-03-04T23:33:55.672Z,14.60
2019-03-04T23:36:24.449Z,14.53
2019-03-04T23:38:53.264Z,14.60
2019-03-04T23:41:22.036Z,16.13
2019-03-04T23:43:50.800Z,16.70
2019-03-04T23:46:19.564Z,18.67
2019-03-04T23:48:48.312Z,20.83
2019-03-04T23:51:17.104Z,20.07
2019-03-04T23:53:45.848Z,16.60
2019-03-04T23:56:14.606Z,15.43
2019-03-04T23:58:43.385Z,16.83
